sensor_id;sensor_type;location;lat;lon;timestamp;P1;durP1;ratioP1;P2;durP2;ratioP2
12290;SDS011;6208;48.956;9.076;2024-01-30T00:00:53;7.77;;;7.07;;
12290;SDS011;6208;48.956;9.076;2024-01-30T00:03:37;10.23;;;8.07;;
12290;SDS011;6208;48.956;9.076;2024-01-30T00:06:21;11.93;;;8.97;;
12290;SDS011;6208;48.956;9.076;2024-01-30T00:09:06;13.63;;;9.17;;
12290;SDS011;6208;48.956;9.076;2024-01-30T00:11:50;10.90;;;7.97;;
12290;SDS011;6208;48.956;9.076;2024-01-30T00:14:34;8.83;;;7.80;;
12290;SDS011;6208;48.956;9.076;2024-01-30T00:17:18;9.07;;;8.10;;
12290;SDS011;6208;48.956;9.076;2024-01-30T00:20:04;8.93;;;8.03;;
12290;SDS011;6208;48.956;9.076;2024-01-30T00:22:48;8.00;;;7.00;;
12290;SDS011;6208;48.956;9.076;2024-01-30T00:25:32;9.43;;;7.53;;
12290;SDS011;6208;48.956;9.076;2024-01-30T00:28:17;8.80;;;7.43;;
12290;SDS011;6208;48.956;9.076;2024-01-30T00:31:01;8.47;;;7.30;;
12290;SDS011;6208;48.956;9.076;2024-01-30T00:33:45;7.33;;;6.60;;
12290;SDS011;6208;48.956;9.076;2024-01-30T00:36:29;7.90;;;7.10;;
12290;SDS011;6208;48.956;9.076;2024-01-30T00:39:14;8.73;;;7.87;;
12290;SDS011;6208;48.956;9.076;2024-01-30T00:41:59;8.80;;;7.07;;
12290;SDS011;6208;48.956;9.076;2024-01-30T00:44:44;7.63;;;6.93;;
12290;SDS011;6208;48.956;9.076;2024-01-30T00:47:28;8.30;;;7.27;;
12290;SDS011;6208;48.956;9.076;2024-01-30T00:50:12;9.20;;;7.07;;
12290;SDS011;6208;48.956;9.076;2024-01-30T00:52:56;7.43;;;6.70;;
12290;SDS011;6208;48.956;9.076;2024-01-30T00:55:41;8.17;;;7.27;;
12290;SDS011;6208;48.956;9.076;2024-01-30T00:58:25;7.80;;;7.00;;
12290;SDS011;6208;48.956;9.076;2024-01-30T01:01:09;8.37;;;6.80;;
12290;SDS011;6208;48.956;9.076;2024-01-30T01:03:53;12.37;;;8.03;;
12290;SDS011;6208;48.956;9.076;2024-01-30T01:06:37;9.93;;;7.20;;
12290;SDS011;6208;48.956;9.076;2024-01-30T01:09:21;10.07;;;7.80;;
12290;SDS011;6208;48.956;9.076;2024-01-30T01:12:05;8.93;;;7.17;;
12290;SDS011;6208;48.956;9.076;2024-01-30T01:14:50;8.63;;;7.20;;
12290;SDS011;6208;48.956;9.076;2024-01-30T01:17:34;8.50;;;7.30;;
12290;SDS011;6208;48.956;9.076;2024-01-30T01:20:22;10.30;;;7.30;;
12290;SDS011;6208;48.956;9.076;2024-01-30T01:23:06;9.67;;;7.30;;
12290;SDS011;6208;48.956;9.076;2024-01-30T01:25:50;9.43;;;7.70;;
12290;SDS011;6208;48.956;9.076;2024-01-30T01:28:34;9.40;;;7.77;;
12290;SDS011;6208;48.956;9.076;2024-01-30T01:31:19;8.50;;;7.20;;
12290;SDS011;6208;48.956;9.076;2024-01-30T01:34:06;12.00;;;8.63;;
12290;SDS011;6208;48.956;9.076;2024-01-30T01:36:50;8.20;;;7.50;;
12290;SDS011;6208;48.956;9.076;2024-01-30T01:39:35;9.43;;;7.97;;
12290;SDS011;6208;48.956;9.076;2024-01-30T01:42:19;9.27;;;7.40;;
12290;SDS011;6208;48.956;9.076;2024-01-30T01:45:03;11.70;;;8.50;;
12290;SDS011;6208;48.956;9.076;2024-01-30T01:47:50;10.10;;;8.00;;
12290;SDS011;6208;48.956;9.076;2024-01-30T01:50:34;11.60;;;8.20;;
12290;SDS011;6208;48.956;9.076;2024-01-30T01:53:20;10.17;;;8.20;;
12290;SDS011;6208;48.956;9.076;2024-01-30T01:56:04;9.30;;;7.70;;
12290;SDS011;6208;48.956;9.076;2024-01-30T01:58:50;9.80;;;7.90;;
12290;SDS011;6208;48.956;9.076;2024-01-30T02:01:37;10.00;;;8.10;;
12290;SDS011;6208;48.956;9.076;2024-01-30T02:04:22;8.57;;;6.83;;
12290;SDS011;6208;48.956;9.076;2024-01-30T02:07:06;15.40;;;6.80;;
12290;SDS011;6208;48.956;9.076;2024-01-30T02:09:51;10.33;;;7.30;;
12290;SDS011;6208;48.956;9.076;2024-01-30T02:12:35;9.30;;;6.83;;
12290;SDS011;6208;48.956;9.076;2024-01-30T02:15:19;9.03;;;7.20;;
12290;SDS011;6208;48.956;9.076;2024-01-30T02:18:03;9.77;;;7.70;;
12290;SDS011;6208;48.956;9.076;2024-01-30T02:20:48;10.37;;;7.37;;
12290;SDS011;6208;48.956;9.076;2024-01-30T02:23:32;7.77;;;7.07;;
12290;SDS011;6208;48.956;9.076;2024-01-30T02:26:18;11.43;;;7.30;;
12290;SDS011;6208;48.956;9.076;2024-01-30T02:29:02;10.77;;;7.87;;
12290;SDS011;6208;48.956;9.076;2024-01-30T02:31:46;9.27;;;7.93;;
12290;SDS011;6208;48.956;9.076;2024-01-30T02:34:31;9.30;;;7.00;;
12290;SDS011;6208;48.956;9.076;2024-01-30T02:37:16;9.90;;;7.70;;
12290;SDS011;6208;48.956;9.076;2024-01-30T02:40:00;9.23;;;7.63;;
12290;SDS011;6208;48.956;9.076;2024-01-30T02:42:44;9.53;;;7.43;;
12290;SDS011;6208;48.956;9.076;2024-01-30T02:45:28;8.60;;;7.70;;
12290;SDS011;6208;48.956;9.076;2024-01-30T02:48:12;9.50;;;7.67;;
12290;SDS011;6208;48.956;9.076;2024-01-30T02:50:56;10.50;;;8.03;;
12290;SDS011;6208;48.956;9.076;2024-01-30T02:53:41;9.43;;;7.23;;
12290;SDS011;6208;48.956;9.076;2024-01-30T02:56:25;9.33;;;7.30;;
12290;SDS011;6208;48.956;9.076;2024-01-30T02:59:09;8.50;;;7.10;;
12290;SDS011;6208;48.956;9.076;2024-01-30T03:01:53;8.73;;;7.40;;
12290;SDS011;6208;48.956;9.076;2024-01-30T03:04:37;8.33;;;6.70;;
12290;SDS011;6208;48.956;9.076;2024-01-30T03:07:24;8.67;;;7.20;;
12290;SDS011;6208;48.956;9.076;2024-01-30T03:10:09;8.40;;;6.73;;
12290;SDS011;6208;48.956;9.076;2024-01-30T03:12:54;9.93;;;7.30;;
12290;SDS011;6208;48.956;9.076;2024-01-30T03:15:37;10.30;;;6.90;;
12290;SDS011;6208;48.956;9.076;2024-01-30T03:18:21;9.23;;;7.20;;
12290;SDS011;6208;48.956;9.076;2024-01-30T03:21:05;7.07;;;6.50;;
12290;SDS011;6208;48.956;9.076;2024-01-30T03:23:49;8.90;;;7.70;;
12290;SDS011;6208;48.956;9.076;2024-01-30T03:26:33;7.83;;;7.03;;
12290;SDS011;6208;48.956;9.076;2024-01-30T03:29:17;9.17;;;7.27;;
12290;SDS011;6208;48.956;9.076;2024-01-30T03:32:01;11.30;;;7.27;;
12290;SDS011;6208;48.956;9.076;2024-01-30T03:34:47;10.87;;;7.47;;
12290;SDS011;6208;48.956;9.076;2024-01-30T03:37:31;9.70;;;7.23;;
12290;SDS011;6208;48.956;9.076;2024-01-30T03:40:15;7.80;;;7.00;;
12290;SDS011;6208;48.956;9.076;2024-01-30T03:42:59;7.47;;;6.63;;
12290;SDS011;6208;48.956;9.076;2024-01-30T03:45:43;8.40;;;6.63;;
12290;SDS011;6208;48.956;9.076;2024-01-30T03:48:28;7.50;;;6.67;;
12290;SDS011;6208;48.956;9.076;2024-01-30T03:51:13;6.30;;;5.63;;
12290;SDS011;6208;48.956;9.076;2024-01-30T03:53:59;6.07;;;5.47;;
12290;SDS011;6208;48.956;9.076;2024-01-30T03:56:43;6.13;;;5.17;;
12290;SDS011;6208;48.956;9.076;2024-01-30T03:59:27;6.70;;;5.50;;
12290;SDS011;6208;48.956;9.076;2024-01-30T04:02:11;6.33;;;5.73;;
12290;SDS011;6208;48.956;9.076;2024-01-30T04:04:55;5.90;;;5.40;;
12290;SDS011;6208;48.956;9.076;2024-01-30T04:07:39;6.67;;;5.20;;
12290;SDS011;6208;48.956;9.076;2024-01-30T04:10:23;7.00;;;5.80;;
12290;SDS011;6208;48.956;9.076;2024-01-30T04:13:11;6.87;;;5.90;;
12290;SDS011;6208;48.956;9.076;2024-01-30T04:15:55;6.97;;;5.77;;
12290;SDS011;6208;48.956;9.076;2024-01-30T04:18:39;6.20;;;5.60;;
12290;SDS011;6208;48.956;9.076;2024-01-30T04:21:23;8.67;;;6.10;;
12290;SDS011;6208;48.956;9.076;2024-01-30T04:24:08;8.80;;;6.30;;
12290;SDS011;6208;48.956;9.076;2024-01-30T04:26:52;7.63;;;5.83;;
12290;SDS011;6208;48.956;9.076;2024-01-30T04:29:36;17.90;;;6.07;;
12290;SDS011;6208;48.956;9.076;2024-01-30T04:32:20;14.07;;;6.83;;
12290;SDS011;6208;48.956;9.076;2024-01-30T04:35:04;7.60;;;6.23;;
12290;SDS011;6208;48.956;9.076;2024-01-30T04:37:48;7.50;;;6.60;;
12290;SDS011;6208;48.956;9.076;2024-01-30T04:40:32;8.83;;;6.80;;
12290;SDS011;6208;48.956;9.076;2024-01-30T04:43:17;17.17;;;6.90;;
12290;SDS011;6208;48.956;9.076;2024-01-30T04:46:02;6.60;;;5.90;;
12290;SDS011;6208;48.956;9.076;2024-01-30T04:48:47;6.57;;;5.93;;
12290;SDS011;6208;48.956;9.076;2024-01-30T04:51:31;9.10;;;7.40;;
12290;SDS011;6208;48.956;9.076;2024-01-30T04:54:15;8.53;;;6.60;;
12290;SDS011;6208;48.956;9.076;2024-01-30T04:57:00;9.00;;;6.70;;
12290;SDS011;6208;48.956;9.076;2024-01-30T04:59:44;8.13;;;6.00;;
12290;SDS011;6208;48.956;9.076;2024-01-30T05:02:28;7.90;;;6.20;;
12290;SDS011;6208;48.956;9.076;2024-01-30T05:05:12;7.97;;;6.20;;
12290;SDS011;6208;48.956;9.076;2024-01-30T05:07:56;8.20;;;6.27;;
12290;SDS011;6208;48.956;9.076;2024-01-30T05:10:41;8.13;;;6.30;;
12290;SDS011;6208;48.956;9.076;2024-01-30T05:13:25;6.83;;;6.13;;
12290;SDS011;6208;48.956;9.076;2024-01-30T05:16:09;7.60;;;6.57;;
12290;SDS011;6208;48.956;9.076;2024-01-30T05:18:53;9.80;;;7.87;;
12290;SDS011;6208;48.956;9.076;2024-01-30T05:21:38;8.77;;;6.50;;
12290;SDS011;6208;48.956;9.076;2024-01-30T05:24:21;6.77;;;6.17;;
12290;SDS011;6208;48.956;9.076;2024-01-30T05:27:06;11.77;;;7.23;;
12290;SDS011;6208;48.956;9.076;2024-01-30T05:29:50;9.30;;;7.13;;
12290;SDS011;6208;48.956;9.076;2024-01-30T05:32:34;10.30;;;6.93;;
12290;SDS011;6208;48.956;9.076;2024-01-30T05:35:18;7.43;;;6.50;;
12290;SDS011;6208;48.956;9.076;2024-01-30T05:38:04;11.20;;;6.93;;
12290;SDS011;6208;48.956;9.076;2024-01-30T05:40:48;8.60;;;7.70;;
12290;SDS011;6208;48.956;9.076;2024-01-30T05:43:32;8.87;;;7.97;;
12290;SDS011;6208;48.956;9.076;2024-01-30T05:46:16;10.87;;;7.93;;
12290;SDS011;6208;48.956;9.076;2024-01-30T05:49:01;9.27;;;7.77;;
12290;SDS011;6208;48.956;9.076;2024-01-30T05:51:45;8.03;;;7.20;;
12290;SDS011;6208;48.956;9.076;2024-01-30T05:54:29;8.60;;;7.43;;
12290;SDS011;6208;48.956;9.076;2024-01-30T05:57:13;9.47;;;7.70;;
12290;SDS011;6208;48.956;9.076;2024-01-30T05:59:57;8.97;;;7.67;;
12290;SDS011;6208;48.956;9.076;2024-01-30T06:02:42;9.47;;;7.67;;
12290;SDS011;6208;48.956;9.076;2024-01-30T06:05:26;10.10;;;7.53;;
12290;SDS011;6208;48.956;9.076;2024-01-30T06:08:10;8.00;;;7.20;;
12290;SDS011;6208;48.956;9.076;2024-01-30T06:10:54;7.67;;;6.57;;
12290;SDS011;6208;48.956;9.076;2024-01-30T06:13:38;10.03;;;7.03;;
12290;SDS011;6208;48.956;9.076;2024-01-30T06:16:22;7.70;;;6.97;;
12290;SDS011;6208;48.956;9.076;2024-01-30T06:19:06;8.90;;;8.00;;
12290;SDS011;6208;48.956;9.076;2024-01-30T06:21:50;10.33;;;8.33;;
12290;SDS011;6208;48.956;9.076;2024-01-30T06:24:34;9.33;;;7.97;;
12290;SDS011;6208;48.956;9.076;2024-01-30T06:27:18;12.43;;;8.97;;
12290;SDS011;6208;48.956;9.076;2024-01-30T06:30:03;11.53;;;9.03;;
12290;SDS011;6208;48.956;9.076;2024-01-30T06:32:48;9.17;;;7.40;;
12290;SDS011;6208;48.956;9.076;2024-01-30T06:35:33;10.90;;;7.97;;
12290;SDS011;6208;48.956;9.076;2024-01-30T06:38:18;8.33;;;7.17;;
12290;SDS011;6208;48.956;9.076;2024-01-30T06:41:02;8.80;;;6.63;;
12290;SDS011;6208;48.956;9.076;2024-01-30T06:43:47;7.53;;;6.73;;
12290;SDS011;6208;48.956;9.076;2024-01-30T06:46:31;8.03;;;7.10;;
12290;SDS011;6208;48.956;9.076;2024-01-30T06:49:16;8.90;;;7.47;;
12290;SDS011;6208;48.956;9.076;2024-01-30T06:52:00;8.60;;;7.23;;
12290;SDS011;6208;48.956;9.076;2024-01-30T06:54:44;7.97;;;7.13;;
12290;SDS011;6208;48.956;9.076;2024-01-30T06:57:28;8.87;;;7.40;;
12290;SDS011;6208;48.956;9.076;2024-01-30T07:00:14;10.07;;;7.57;;
12290;SDS011;6208;48.956;9.076;2024-01-30T07:03:00;9.87;;;7.97;;
12290;SDS011;6208;48.956;9.076;2024-01-30T07:05:44;8.87;;;7.93;;
12290;SDS011;6208;48.956;9.076;2024-01-30T07:08:28;11.10;;;8.20;;
12290;SDS011;6208;48.956;9.076;2024-01-30T07:11:18;10.63;;;7.70;;
12290;SDS011;6208;48.956;9.076;2024-01-30T07:14:05;11.10;;;8.97;;
12290;SDS011;6208;48.956;9.076;2024-01-30T07:16:50;10.50;;;8.43;;
12290;SDS011;6208;48.956;9.076;2024-01-30T07:19:34;10.87;;;8.53;;
12290;SDS011;6208;48.956;9.076;2024-01-30T07:22:19;11.90;;;8.60;;
12290;SDS011;6208;48.956;9.076;2024-01-30T07:25:03;10.43;;;9.17;;
12290;SDS011;6208;48.956;9.076;2024-01-30T07:27:47;11.13;;;8.60;;
12290;SDS011;6208;48.956;9.076;2024-01-30T07:30:31;9.93;;;7.87;;
12290;SDS011;6208;48.956;9.076;2024-01-30T07:33:15;10.70;;;8.63;;
12290;SDS011;6208;48.956;9.076;2024-01-30T07:35:59;14.83;;;8.70;;
12290;SDS011;6208;48.956;9.076;2024-01-30T07:38:43;10.50;;;8.63;;
12290;SDS011;6208;48.956;9.076;2024-01-30T07:41:27;12.37;;;8.73;;
12290;SDS011;6208;48.956;9.076;2024-01-30T07:44:12;10.00;;;8.50;;
12290;SDS011;6208;48.956;9.076;2024-01-30T07:46:56;14.57;;;9.33;;
12290;SDS011;6208;48.956;9.076;2024-01-30T07:49:41;15.63;;;9.50;;
12290;SDS011;6208;48.956;9.076;2024-01-30T07:52:25;15.87;;;11.60;;
12290;SDS011;6208;48.956;9.076;2024-01-30T07:55:09;13.53;;;10.80;;
12290;SDS011;6208;48.956;9.076;2024-01-30T07:57:53;13.20;;;10.13;;
12290;SDS011;6208;48.956;9.076;2024-01-30T08:00:37;12.33;;;9.10;;
12290;SDS011;6208;48.956;9.076;2024-01-30T08:03:22;11.67;;;9.53;;
12290;SDS011;6208;48.956;9.076;2024-01-30T08:06:06;14.90;;;9.80;;
12290;SDS011;6208;48.956;9.076;2024-01-30T08:08:50;17.43;;;10.50;;
12290;SDS011;6208;48.956;9.076;2024-01-30T08:11:36;13.20;;;8.70;;
12290;SDS011;6208;48.956;9.076;2024-01-30T08:14:20;14.90;;;8.97;;
12290;SDS011;6208;48.956;9.076;2024-01-30T08:17:04;10.40;;;8.83;;
12290;SDS011;6208;48.956;9.076;2024-01-30T08:19:50;12.77;;;8.60;;
12290;SDS011;6208;48.956;9.076;2024-01-30T08:22:35;10.53;;;8.70;;
12290;SDS011;6208;48.956;9.076;2024-01-30T08:25:19;11.03;;;8.70;;
12290;SDS011;6208;48.956;9.076;2024-01-30T08:28:03;11.37;;;10.10;;
12290;SDS011;6208;48.956;9.076;2024-01-30T08:30:47;13.40;;;9.37;;
12290;SDS011;6208;48.956;9.076;2024-01-30T08:33:31;12.10;;;9.23;;
12290;SDS011;6208;48.956;9.076;2024-01-30T08:36:16;10.97;;;9.70;;
12290;SDS011;6208;48.956;9.076;2024-01-30T08:39:01;11.17;;;9.17;;
12290;SDS011;6208;48.956;9.076;2024-01-30T08:41:44;10.43;;;9.07;;
12290;SDS011;6208;48.956;9.076;2024-01-30T08:44:29;10.17;;;9.17;;
12290;SDS011;6208;48.956;9.076;2024-01-30T08:47:13;11.87;;;9.73;;
12290;SDS011;6208;48.956;9.076;2024-01-30T08:49:57;19.07;;;9.40;;
12290;SDS011;6208;48.956;9.076;2024-01-30T08:52:41;14.23;;;9.70;;
12290;SDS011;6208;48.956;9.076;2024-01-30T08:55:25;9.40;;;8.00;;
12290;SDS011;6208;48.956;9.076;2024-01-30T08:58:09;10.90;;;8.60;;
12290;SDS011;6208;48.956;9.076;2024-01-30T09:00:54;10.27;;;8.40;;
12290;SDS011;6208;48.956;9.076;2024-01-30T09:03:37;10.63;;;8.73;;
12290;SDS011;6208;48.956;9.076;2024-01-30T09:06:24;10.70;;;8.90;;
12290;SDS011;6208;48.956;9.076;2024-01-30T09:09:11;13.20;;;9.67;;
12290;SDS011;6208;48.956;9.076;2024-01-30T09:11:55;13.07;;;9.30;;
12290;SDS011;6208;48.956;9.076;2024-01-30T09:14:41;12.83;;;8.83;;
12290;SDS011;6208;48.956;9.076;2024-01-30T09:17:25;10.17;;;8.77;;
12290;SDS011;6208;48.956;9.076;2024-01-30T09:20:10;12.13;;;8.90;;
12290;SDS011;6208;48.956;9.076;2024-01-30T09:22:54;12.40;;;8.60;;
12290;SDS011;6208;48.956;9.076;2024-01-30T09:25:38;11.17;;;8.93;;
12290;SDS011;6208;48.956;9.076;2024-01-30T09:28:22;11.23;;;8.87;;
12290;SDS011;6208;48.956;9.076;2024-01-30T09:31:09;11.47;;;9.23;;
12290;SDS011;6208;48.956;9.076;2024-01-30T09:33:54;14.77;;;8.80;;
12290;SDS011;6208;48.956;9.076;2024-01-30T09:36:39;12.67;;;9.57;;
12290;SDS011;6208;48.956;9.076;2024-01-30T09:39:23;13.30;;;9.53;;
12290;SDS011;6208;48.956;9.076;2024-01-30T09:42:12;11.40;;;10.17;;
12290;SDS011;6208;48.956;9.076;2024-01-30T09:45:08;12.47;;;8.93;;
12290;SDS011;6208;48.956;9.076;2024-01-30T09:47:58;12.83;;;9.43;;
12290;SDS011;6208;48.956;9.076;2024-01-30T09:50:43;12.13;;;9.50;;
12290;SDS011;6208;48.956;9.076;2024-01-30T09:53:28;11.80;;;9.70;;
12290;SDS011;6208;48.956;9.076;2024-01-30T09:56:15;11.50;;;9.60;;
12290;SDS011;6208;48.956;9.076;2024-01-30T09:59:00;11.27;;;9.90;;
12290;SDS011;6208;48.956;9.076;2024-01-30T10:01:44;17.07;;;9.70;;
12290;SDS011;6208;48.956;9.076;2024-01-30T10:04:30;13.40;;;9.67;;
12290;SDS011;6208;48.956;9.076;2024-01-30T10:07:15;10.17;;;9.03;;
12290;SDS011;6208;48.956;9.076;2024-01-30T10:10:00;10.20;;;9.10;;
12290;SDS011;6208;48.956;9.076;2024-01-30T10:12:44;11.43;;;9.60;;
12290;SDS011;6208;48.956;9.076;2024-01-30T10:15:28;10.80;;;9.57;;
12290;SDS011;6208;48.956;9.076;2024-01-30T10:18:12;15.70;;;9.67;;
12290;SDS011;6208;48.956;9.076;2024-01-30T10:20:56;21.83;;;10.83;;
12290;SDS011;6208;48.956;9.076;2024-01-30T10:23:43;12.50;;;10.00;;
12290;SDS011;6208;48.956;9.076;2024-01-30T10:26:28;12.70;;;9.70;;
12290;SDS011;6208;48.956;9.076;2024-01-30T10:29:12;15.17;;;9.87;;
12290;SDS011;6208;48.956;9.076;2024-01-30T10:32:00;12.50;;;10.27;;
12290;SDS011;6208;48.956;9.076;2024-01-30T10:34:45;12.47;;;9.60;;
12290;SDS011;6208;48.956;9.076;2024-01-30T10:37:30;10.63;;;9.50;;
12290;SDS011;6208;48.956;9.076;2024-01-30T10:40:16;17.27;;;10.30;;
12290;SDS011;6208;48.956;9.076;2024-01-30T10:43:01;13.00;;;10.23;;
12290;SDS011;6208;48.956;9.076;2024-01-30T10:45:49;11.47;;;9.83;;
12290;SDS011;6208;48.956;9.076;2024-01-30T10:48:37;12.53;;;9.83;;
12290;SDS011;6208;48.956;9.076;2024-01-30T10:51:26;14.70;;;10.20;;
12290;SDS011;6208;48.956;9.076;2024-01-30T10:54:11;12.07;;;9.90;;
12290;SDS011;6208;48.956;9.076;2024-01-30T10:56:57;12.47;;;9.90;;
12290;SDS011;6208;48.956;9.076;2024-01-30T10:59:45;13.07;;;10.07;;
12290;SDS011;6208;48.956;9.076;2024-01-30T11:02:30;12.27;;;9.40;;
12290;SDS011;6208;48.956;9.076;2024-01-30T11:05:22;14.43;;;10.27;;
12290;SDS011;6208;48.956;9.076;2024-01-30T11:08:10;12.60;;;9.70;;
12290;SDS011;6208;48.956;9.076;2024-01-30T11:10:56;10.83;;;9.67;;
12290;SDS011;6208;48.956;9.076;2024-01-30T11:13:41;14.07;;;9.70;;
12290;SDS011;6208;48.956;9.076;2024-01-30T11:16:30;17.47;;;9.83;;
12290;SDS011;6208;48.956;9.076;2024-01-30T11:19:15;10.13;;;9.07;;
12290;SDS011;6208;48.956;9.076;2024-01-30T11:22:15;12.50;;;9.80;;
12290;SDS011;6208;48.956;9.076;2024-01-30T11:25:04;10.67;;;9.57;;
12290;SDS011;6208;48.956;9.076;2024-01-30T11:27:52;12.63;;;10.10;;
12290;SDS011;6208;48.956;9.076;2024-01-30T11:30:37;14.27;;;10.27;;
12290;SDS011;6208;48.956;9.076;2024-01-30T11:33:29;12.53;;;9.63;;
12290;SDS011;6208;48.956;9.076;2024-01-30T11:36:17;11.63;;;9.70;;
12290;SDS011;6208;48.956;9.076;2024-01-30T11:39:04;11.63;;;9.83;;
12290;SDS011;6208;48.956;9.076;2024-01-30T11:41:50;11.90;;;10.10;;
12290;SDS011;6208;48.956;9.076;2024-01-30T11:44:35;10.80;;;9.53;;
12290;SDS011;6208;48.956;9.076;2024-01-30T11:47:20;11.23;;;10.00;;
12290;SDS011;6208;48.956;9.076;2024-01-30T11:50:04;11.67;;;9.93;;
12290;SDS011;6208;48.956;9.076;2024-01-30T11:52:50;13.83;;;10.57;;
12290;SDS011;6208;48.956;9.076;2024-01-30T11:55:34;13.27;;;11.00;;
12290;SDS011;6208;48.956;9.076;2024-01-30T11:58:20;16.93;;;11.00;;
12290;SDS011;6208;48.956;9.076;2024-01-30T12:01:10;15.70;;;10.83;;
12290;SDS011;6208;48.956;9.076;2024-01-30T12:03:55;13.15;;;10.88;;
12290;SDS011;6208;48.956;9.076;2024-01-30T12:06:40;15.00;;;10.73;;
12290;SDS011;6208;48.956;9.076;2024-01-30T12:09:24;13.37;;;11.00;;
12290;SDS011;6208;48.956;9.076;2024-01-30T12:12:08;14.10;;;10.90;;
12290;SDS011;6208;48.956;9.076;2024-01-30T12:14:56;12.87;;;10.93;;
12290;SDS011;6208;48.956;9.076;2024-01-30T12:17:40;14.55;;;12.07;;
12290;SDS011;6208;48.956;9.076;2024-01-30T12:20:25;15.68;;;11.95;;
12290;SDS011;6208;48.956;9.076;2024-01-30T12:23:09;13.00;;;10.97;;
12290;SDS011;6208;48.956;9.076;2024-01-30T12:25:57;12.40;;;11.10;;
12290;SDS011;6208;48.956;9.076;2024-01-30T12:28:48;14.00;;;11.90;;
12290;SDS011;6208;48.956;9.076;2024-01-30T12:31:36;12.77;;;11.43;;
12290;SDS011;6208;48.956;9.076;2024-01-30T12:34:20;15.40;;;10.90;;
12290;SDS011;6208;48.956;9.076;2024-01-30T12:37:04;12.88;;;11.57;;
12290;SDS011;6208;48.956;9.076;2024-01-30T12:39:53;13.32;;;11.45;;
12290;SDS011;6208;48.956;9.076;2024-01-30T12:42:38;12.73;;;10.93;;
12290;SDS011;6208;48.956;9.076;2024-01-30T12:45:22;13.73;;;11.18;;
12290;SDS011;6208;48.956;9.076;2024-01-30T12:48:07;13.87;;;11.27;;
12290;SDS011;6208;48.956;9.076;2024-01-30T12:50:52;13.90;;;10.77;;
12290;SDS011;6208;48.956;9.076;2024-01-30T12:53:36;14.23;;;10.95;;
12290;SDS011;6208;48.956;9.076;2024-01-30T12:56:21;14.23;;;10.38;;
12290;SDS011;6208;48.956;9.076;2024-01-30T12:59:05;12.32;;;10.02;;
12290;SDS011;6208;48.956;9.076;2024-01-30T13:01:49;12.32;;;10.63;;
12290;SDS011;6208;48.956;9.076;2024-01-30T13:04:33;16.00;;;10.13;;
12290;SDS011;6208;48.956;9.076;2024-01-30T13:07:18;15.45;;;9.98;;
12290;SDS011;6208;48.956;9.076;2024-01-30T13:10:04;13.50;;;10.52;;
12290;SDS011;6208;48.956;9.076;2024-01-30T13:12:49;13.52;;;10.73;;
12290;SDS011;6208;48.956;9.076;2024-01-30T13:15:34;14.23;;;10.27;;
12290;SDS011;6208;48.956;9.076;2024-01-30T13:18:18;14.02;;;10.48;;
12290;SDS011;6208;48.956;9.076;2024-01-30T13:21:02;11.73;;;10.43;;
12290;SDS011;6208;48.956;9.076;2024-01-30T13:23:46;12.15;;;10.65;;
12290;SDS011;6208;48.956;9.076;2024-01-30T13:26:33;14.13;;;10.25;;
12290;SDS011;6208;48.956;9.076;2024-01-30T13:29:18;13.38;;;10.60;;
12290;SDS011;6208;48.956;9.076;2024-01-30T13:32:03;12.20;;;10.85;;
12290;SDS011;6208;48.956;9.076;2024-01-30T13:34:47;13.65;;;12.18;;
12290;SDS011;6208;48.956;9.076;2024-01-30T13:37:31;13.98;;;12.10;;
12290;SDS011;6208;48.956;9.076;2024-01-30T13:40:15;15.02;;;11.23;;
12290;SDS011;6208;48.956;9.076;2024-01-30T13:43:00;13.48;;;12.05;;
12290;SDS011;6208;48.956;9.076;2024-01-30T13:45:44;14.82;;;11.70;;
12290;SDS011;6208;48.956;9.076;2024-01-30T13:48:29;13.57;;;10.82;;
12290;SDS011;6208;48.956;9.076;2024-01-30T13:51:14;13.68;;;10.07;;
12290;SDS011;6208;48.956;9.076;2024-01-30T13:54:00;11.68;;;10.45;;
12290;SDS011;6208;48.956;9.076;2024-01-30T13:56:44;13.02;;;10.98;;
12290;SDS011;6208;48.956;9.076;2024-01-30T13:59:28;12.88;;;10.68;;
12290;SDS011;6208;48.956;9.076;2024-01-30T14:02:12;11.80;;;9.70;;
12290;SDS011;6208;48.956;9.076;2024-01-30T14:04:56;13.48;;;11.07;;
12290;SDS011;6208;48.956;9.076;2024-01-30T14:07:41;15.93;;;11.63;;
12290;SDS011;6208;48.956;9.076;2024-01-30T14:10:27;12.45;;;11.20;;
12290;SDS011;6208;48.956;9.076;2024-01-30T14:13:11;12.40;;;11.07;;
12290;SDS011;6208;48.956;9.076;2024-01-30T14:15:55;15.23;;;11.23;;
12290;SDS011;6208;48.956;9.076;2024-01-30T14:18:40;14.40;;;11.98;;
12290;SDS011;6208;48.956;9.076;2024-01-30T14:21:25;12.02;;;10.82;;
12290;SDS011;6208;48.956;9.076;2024-01-30T14:24:09;15.13;;;10.32;;
12290;SDS011;6208;48.956;9.076;2024-01-30T14:26:53;13.23;;;10.93;;
12290;SDS011;6208;48.956;9.076;2024-01-30T14:29:37;12.07;;;10.65;;
12290;SDS011;6208;48.956;9.076;2024-01-30T14:32:23;13.00;;;11.80;;
12290;SDS011;6208;48.956;9.076;2024-01-30T14:35:07;12.32;;;10.88;;
12290;SDS011;6208;48.956;9.076;2024-01-30T14:37:52;12.45;;;11.23;;
12290;SDS011;6208;48.956;9.076;2024-01-30T14:40:38;15.55;;;11.15;;
12290;SDS011;6208;48.956;9.076;2024-01-30T14:43:22;11.80;;;10.55;;
12290;SDS011;6208;48.956;9.076;2024-01-30T14:46:06;13.38;;;11.27;;
12290;SDS011;6208;48.956;9.076;2024-01-30T14:48:50;11.80;;;10.50;;
12290;SDS011;6208;48.956;9.076;2024-01-30T14:51:35;12.10;;;10.63;;
12290;SDS011;6208;48.956;9.076;2024-01-30T14:54:19;12.13;;;10.48;;
12290;SDS011;6208;48.956;9.076;2024-01-30T14:57:03;12.52;;;10.25;;
12290;SDS011;6208;48.956;9.076;2024-01-30T14:59:48;14.10;;;10.88;;
12290;SDS011;6208;48.956;9.076;2024-01-30T15:02:32;11.85;;;10.65;;
12290;SDS011;6208;48.956;9.076;2024-01-30T15:05:16;11.88;;;10.68;;
12290;SDS011;6208;48.956;9.076;2024-01-30T15:08:00;12.73;;;10.30;;
12290;SDS011;6208;48.956;9.076;2024-01-30T15:10:45;12.52;;;9.77;;
12290;SDS011;6208;48.956;9.076;2024-01-30T15:13:29;15.02;;;11.70;;
12290;SDS011;6208;48.956;9.076;2024-01-30T15:16:13;14.27;;;10.80;;
12290;SDS011;6208;48.956;9.076;2024-01-30T15:18:57;12.75;;;10.43;;
12290;SDS011;6208;48.956;9.076;2024-01-30T15:21:41;13.73;;;10.40;;
12290;SDS011;6208;48.956;9.076;2024-01-30T15:24:25;15.65;;;10.40;;
12290;SDS011;6208;48.956;9.076;2024-01-30T15:27:09;12.52;;;11.20;;
12290;SDS011;6208;48.956;9.076;2024-01-30T15:29:53;16.55;;;11.60;;
12290;SDS011;6208;48.956;9.076;2024-01-30T15:32:37;14.63;;;11.02;;
12290;SDS011;6208;48.956;9.076;2024-01-30T15:35:22;18.38;;;11.95;;
12290;SDS011;6208;48.956;9.076;2024-01-30T15:38:06;18.23;;;14.13;;
12290;SDS011;6208;48.956;9.076;2024-01-30T15:40:52;18.42;;;14.57;;
12290;SDS011;6208;48.956;9.076;2024-01-30T15:43:37;21.58;;;16.08;;
12290;SDS011;6208;48.956;9.076;2024-01-30T15:46:21;19.67;;;16.08;;
12290;SDS011;6208;48.956;9.076;2024-01-30T15:49:05;19.65;;;15.50;;
12290;SDS011;6208;48.956;9.076;2024-01-30T15:51:50;20.95;;;16.30;;
12290;SDS011;6208;48.956;9.076;2024-01-30T15:54:34;19.02;;;14.27;;
12290;SDS011;6208;48.956;9.076;2024-01-30T15:57:19;20.75;;;15.43;;
12290;SDS011;6208;48.956;9.076;2024-01-30T16:00:02;24.40;;;14.02;;
12290;SDS011;6208;48.956;9.076;2024-01-30T16:02:47;14.10;;;12.60;;
12290;SDS011;6208;48.956;9.076;2024-01-30T16:05:31;15.68;;;13.05;;
12290;SDS011;6208;48.956;9.076;2024-01-30T16:08:15;15.65;;;12.40;;
12290;SDS011;6208;48.956;9.076;2024-01-30T16:10:59;17.48;;;12.93;;
12290;SDS011;6208;48.956;9.076;2024-01-30T16:13:43;17.00;;;12.65;;
12290;SDS011;6208;48.956;9.076;2024-01-30T16:16:27;16.83;;;11.43;;
12290;SDS011;6208;48.956;9.076;2024-01-30T16:19:12;15.23;;;11.05;;
12290;SDS011;6208;48.956;9.076;2024-01-30T16:21:56;15.45;;;11.15;;
12290;SDS011;6208;48.956;9.076;2024-01-30T16:24:40;13.70;;;10.88;;
12290;SDS011;6208;48.956;9.076;2024-01-30T16:27:25;12.48;;;11.20;;
12290;SDS011;6208;48.956;9.076;2024-01-30T16:30:09;12.70;;;11.43;;
12290;SDS011;6208;48.956;9.076;2024-01-30T16:32:53;15.73;;;13.52;;